sensor_id;sensor_type;location;lat;lon;timestamp;P1;durP1;ratioP1;P2;durP2;ratioP2
7306;SDS011;3694;48.732;9.248;2022-12-18T00:00:04;120.20;;;53.23;;
7306;SDS011;3694;48.732;9.248;2022-12-18T00:02:30;126.73;;;55.03;;
7306;SDS011;3694;48.732;9.248;2022-12-18T00:04:56;141.57;;;53.57;;
7306;SDS011;3694;48.732;9.248;2022-12-18T00:07:22;129.90;;;55.23;;
7306;SDS011;3694;48.732;9.248;2022-12-18T00:09:47;128.80;;;53.53;;
7306;SDS011;3694;48.732;9.248;2022-12-18T00:12:13;108.77;;;51.83;;
7306;SDS011;3694;48.732;9.248;2022-12-18T00:14:38;124.50;;;53.03;;
7306;SDS011;3694;48.732;9.248;2022-12-18T00:17:04;116.77;;;51.67;;
7306;SDS011;3694;48.732;9.248;2022-12-18T00:19:29;137.73;;;55.00;;
7306;SDS011;3694;48.732;9.248;2022-12-18T00:21:55;114.60;;;54.87;;
7306;SDS011;3694;48.732;9.248;2022-12-18T00:24:20;139.67;;;55.43;;
7306;SDS011;3694;48.732;9.248;2022-12-18T00:26:46;123.00;;;51.63;;
7306;SDS011;3694;48.732;9.248;2022-12-18T00:29:12;128.43;;;54.17;;
7306;SDS011;3694;48.732;9.248;2022-12-18T00:31:38;111.07;;;53.90;;
7306;SDS011;3694;48.732;9.248;2022-12-18T00:34:05;106.17;;;52.67;;
7306;SDS011;3694;48.732;9.248;2022-12-18T00:36:32;109.10;;;52.13;;
7306;SDS011;3694;48.732;9.248;2022-12-18T00:38:59;105.87;;;54.30;;
7306;SDS011;3694;48.732;9.248;2022-12-18T00:41:26;105.13;;;51.83;;
7306;SDS011;3694;48.732;9.248;2022-12-18T00:44:12;108.60;;;52.00;;
7306;SDS011;3694;48.732;9.248;2022-12-18T00:46:40;105.20;;;50.70;;
7306;SDS011;3694;48.732;9.248;2022-12-18T00:49:06;111.63;;;53.57;;
7306;SDS011;3694;48.732;9.248;2022-12-18T00:51:32;105.03;;;53.40;;
7306;SDS011;3694;48.732;9.248;2022-12-18T00:53:58;140.50;;;52.07;;
7306;SDS011;3694;48.732;9.248;2022-12-18T00:56:23;114.53;;;50.83;;
7306;SDS011;3694;48.732;9.248;2022-12-18T00:58:49;113.53;;;52.77;;
7306;SDS011;3694;48.732;9.248;2022-12-18T01:01:15;138.23;;;48.83;;
7306;SDS011;3694;48.732;9.248;2022-12-18T01:03:41;119.50;;;50.53;;
7306;SDS011;3694;48.732;9.248;2022-12-18T01:06:08;98.00;;;47.90;;
7306;SDS011;3694;48.732;9.248;2022-12-18T01:08:36;124.13;;;47.93;;
7306;SDS011;3694;48.732;9.248;2022-12-18T01:11:16;112.83;;;48.90;;
7306;SDS011;3694;48.732;9.248;2022-12-18T01:13:43;124.20;;;48.50;;
7306;SDS011;3694;48.732;9.248;2022-12-18T01:16:11;111.47;;;48.27;;
7306;SDS011;3694;48.732;9.248;2022-12-18T01:18:40;110.57;;;48.53;;
7306;SDS011;3694;48.732;9.248;2022-12-18T01:21:10;101.03;;;47.60;;
7306;SDS011;3694;48.732;9.248;2022-12-18T01:23:38;154.03;;;47.37;;
7306;SDS011;3694;48.732;9.248;2022-12-18T01:26:05;123.63;;;47.53;;
7306;SDS011;3694;48.732;9.248;2022-12-18T01:28:31;88.30;;;46.73;;
7306;SDS011;3694;48.732;9.248;2022-12-18T01:30:57;82.10;;;44.17;;
7306;SDS011;3694;48.732;9.248;2022-12-18T01:33:22;81.70;;;42.83;;
7306;SDS011;3694;48.732;9.248;2022-12-18T01:35:48;76.60;;;43.63;;
7306;SDS011;3694;48.732;9.248;2022-12-18T01:38:14;90.23;;;44.50;;
7306;SDS011;3694;48.732;9.248;2022-12-18T01:40:39;76.20;;;43.40;;
7306;SDS011;3694;48.732;9.248;2022-12-18T01:43:05;86.23;;;43.57;;
7306;SDS011;3694;48.732;9.248;2022-12-18T01:45:30;75.03;;;40.97;;
7306;SDS011;3694;48.732;9.248;2022-12-18T01:48:03;72.20;;;40.60;;
7306;SDS011;3694;48.732;9.248;2022-12-18T01:50:38;67.90;;;40.93;;
7306;SDS011;3694;48.732;9.248;2022-12-18T01:53:07;68.47;;;41.27;;
7306;SDS011;3694;48.732;9.248;2022-12-18T01:55:38;69.83;;;41.73;;
7306;SDS011;3694;48.732;9.248;2022-12-18T01:58:08;69.10;;;40.00;;
7306;SDS011;3694;48.732;9.248;2022-12-18T02:00:34;69.53;;;40.03;;
7306;SDS011;3694;48.732;9.248;2022-12-18T02:02:59;71.50;;;41.33;;
7306;SDS011;3694;48.732;9.248;2022-12-18T02:08:13;67.23;;;41.57;;
7306;SDS011;3694;48.732;9.248;2022-12-18T02:15:59;67.27;;;40.50;;
7306;SDS011;3694;48.732;9.248;2022-12-18T02:18:38;64.53;;;39.07;;
7306;SDS011;3694;48.732;9.248;2022-12-18T02:24:01;67.63;;;39.10;;
7306;SDS011;3694;48.732;9.248;2022-12-18T02:26:30;64.27;;;38.60;;
7306;SDS011;3694;48.732;9.248;2022-12-18T02:29:08;68.93;;;37.87;;
7306;SDS011;3694;48.732;9.248;2022-12-18T02:31:47;73.33;;;40.80;;
7306;SDS011;3694;48.732;9.248;2022-12-18T02:34:17;69.80;;;41.43;;
7306;SDS011;3694;48.732;9.248;2022-12-18T02:36:44;73.87;;;41.13;;
7306;SDS011;3694;48.732;9.248;2022-12-18T02:39:12;63.17;;;37.40;;
7306;SDS011;3694;48.732;9.248;2022-12-18T02:41:38;65.70;;;38.53;;
7306;SDS011;3694;48.732;9.248;2022-12-18T02:44:09;63.70;;;36.67;;
7306;SDS011;3694;48.732;9.248;2022-12-18T02:46:37;62.57;;;36.73;;
7306;SDS011;3694;48.732;9.248;2022-12-18T02:49:25;62.10;;;36.07;;
7306;SDS011;3694;48.732;9.248;2022-12-18T02:51:53;58.23;;;34.80;;
7306;SDS011;3694;48.732;9.248;2022-12-18T02:54:30;61.33;;;35.77;;
7306;SDS011;3694;48.732;9.248;2022-12-18T03:00:08;61.33;;;36.20;;
7306;SDS011;3694;48.732;9.248;2022-12-18T03:02:48;62.80;;;35.50;;
7306;SDS011;3694;48.732;9.248;2022-12-18T03:08:02;58.73;;;35.00;;
7306;SDS011;3694;48.732;9.248;2022-12-18T03:10:34;55.00;;;33.70;;
7306;SDS011;3694;48.732;9.248;2022-12-18T03:13:08;58.90;;;35.77;;
7306;SDS011;3694;48.732;9.248;2022-12-18T03:15:39;57.93;;;35.50;;
7306;SDS011;3694;48.732;9.248;2022-12-18T03:18:15;57.73;;;34.37;;
7306;SDS011;3694;48.732;9.248;2022-12-18T03:20:45;57.33;;;32.97;;
7306;SDS011;3694;48.732;9.248;2022-12-18T03:23:15;56.00;;;34.53;;
7306;SDS011;3694;48.732;9.248;2022-12-18T03:25:45;62.47;;;35.30;;
7306;SDS011;3694;48.732;9.248;2022-12-18T03:28:14;56.63;;;34.90;;
7306;SDS011;3694;48.732;9.248;2022-12-18T03:30:44;58.40;;;34.77;;
7306;SDS011;3694;48.732;9.248;2022-12-18T03:33:19;58.33;;;34.43;;
7306;SDS011;3694;48.732;9.248;2022-12-18T03:35:56;55.70;;;34.50;;
7306;SDS011;3694;48.732;9.248;2022-12-18T03:38:22;57.10;;;34.93;;
7306;SDS011;3694;48.732;9.248;2022-12-18T03:41:31;55.57;;;33.17;;
7306;SDS011;3694;48.732;9.248;2022-12-18T03:46:47;59.67;;;35.03;;
7306;SDS011;3694;48.732;9.248;2022-12-18T03:49:23;59.17;;;34.70;;
7306;SDS011;3694;48.732;9.248;2022-12-18T03:51:59;58.83;;;33.93;;
7306;SDS011;3694;48.732;9.248;2022-12-18T03:54:29;57.47;;;34.23;;
7306;SDS011;3694;48.732;9.248;2022-12-18T03:57:00;61.87;;;35.80;;
7306;SDS011;3694;48.732;9.248;2022-12-18T03:59:31;60.30;;;34.80;;
7306;SDS011;3694;48.732;9.248;2022-12-18T04:01:59;63.23;;;36.73;;
7306;SDS011;3694;48.732;9.248;2022-12-18T04:04:26;61.90;;;36.20;;
7306;SDS011;3694;48.732;9.248;2022-12-18T04:06:53;63.30;;;37.37;;
7306;SDS011;3694;48.732;9.248;2022-12-18T04:09:20;68.00;;;38.37;;
7306;SDS011;3694;48.732;9.248;2022-12-18T04:11:46;75.03;;;39.77;;
7306;SDS011;3694;48.732;9.248;2022-12-18T04:14:12;74.37;;;42.00;;
7306;SDS011;3694;48.732;9.248;2022-12-18T04:16:39;79.87;;;44.67;;
7306;SDS011;3694;48.732;9.248;2022-12-18T04:19:05;79.27;;;43.90;;
7306;SDS011;3694;48.732;9.248;2022-12-18T04:21:30;76.13;;;43.07;;
7306;SDS011;3694;48.732;9.248;2022-12-18T04:23:56;85.17;;;45.77;;
7306;SDS011;3694;48.732;9.248;2022-12-18T04:26:21;82.83;;;43.33;;
7306;SDS011;3694;48.732;9.248;2022-12-18T04:28:47;82.33;;;43.07;;
7306;SDS011;3694;48.732;9.248;2022-12-18T04:31:13;67.70;;;38.93;;
7306;SDS011;3694;48.732;9.248;2022-12-18T04:33:38;65.57;;;38.27;;
7306;SDS011;3694;48.732;9.248;2022-12-18T04:36:04;64.23;;;36.47;;
7306;SDS011;3694;48.732;9.248;2022-12-18T04:38:30;62.47;;;36.50;;
7306;SDS011;3694;48.732;9.248;2022-12-18T04:40:55;63.87;;;36.10;;
7306;SDS011;3694;48.732;9.248;2022-12-18T04:43:21;66.27;;;37.50;;
7306;SDS011;3694;48.732;9.248;2022-12-18T04:45:46;62.53;;;36.10;;
7306;SDS011;3694;48.732;9.248;2022-12-18T04:48:12;59.50;;;34.57;;
7306;SDS011;3694;48.732;9.248;2022-12-18T04:50:37;57.37;;;34.13;;
7306;SDS011;3694;48.732;9.248;2022-12-18T04:53:03;58.17;;;33.37;;
7306;SDS011;3694;48.732;9.248;2022-12-18T04:55:29;59.80;;;35.07;;
7306;SDS011;3694;48.732;9.248;2022-12-18T04:57:54;54.00;;;32.17;;
7306;SDS011;3694;48.732;9.248;2022-12-18T05:00:20;55.70;;;31.57;;
7306;SDS011;3694;48.732;9.248;2022-12-18T05:02:46;56.03;;;33.97;;
7306;SDS011;3694;48.732;9.248;2022-12-18T05:05:12;57.50;;;33.23;;
7306;SDS011;3694;48.732;9.248;2022-12-18T05:07:38;55.43;;;32.43;;
7306;SDS011;3694;48.732;9.248;2022-12-18T05:10:03;56.57;;;32.37;;
7306;SDS011;3694;48.732;9.248;2022-12-18T05:12:32;52.50;;;31.53;;
7306;SDS011;3694;48.732;9.248;2022-12-18T05:14:58;50.73;;;30.83;;
7306;SDS011;3694;48.732;9.248;2022-12-18T05:17:23;53.93;;;32.57;;
7306;SDS011;3694;48.732;9.248;2022-12-18T05:19:49;53.80;;;32.23;;
7306;SDS011;3694;48.732;9.248;2022-12-18T05:22:14;52.23;;;30.97;;
7306;SDS011;3694;48.732;9.248;2022-12-18T05:24:40;54.70;;;32.13;;
7306;SDS011;3694;48.732;9.248;2022-12-18T05:27:05;55.27;;;32.80;;
7306;SDS011;3694;48.732;9.248;2022-12-18T05:29:31;53.93;;;33.93;;
7306;SDS011;3694;48.732;9.248;2022-12-18T05:31:57;56.03;;;32.17;;
7306;SDS011;3694;48.732;9.248;2022-12-18T05:34:22;51.70;;;32.83;;
7306;SDS011;3694;48.732;9.248;2022-12-18T05:36:48;54.73;;;33.50;;
7306;SDS011;3694;48.732;9.248;2022-12-18T05:39:13;57.17;;;33.73;;
7306;SDS011;3694;48.732;9.248;2022-12-18T05:41:39;49.80;;;31.53;;
7306;SDS011;3694;48.732;9.248;2022-12-18T05:44:04;53.97;;;31.97;;
7306;SDS011;3694;48.732;9.248;2022-12-18T05:46:30;47.73;;;31.20;;
7306;SDS011;3694;48.732;9.248;2022-12-18T05:48:58;51.97;;;30.63;;
7306;SDS011;3694;48.732;9.248;2022-12-18T05:51:24;50.37;;;31.17;;
7306;SDS011;3694;48.732;9.248;2022-12-18T05:53:50;50.30;;;30.50;;
7306;SDS011;3694;48.732;9.248;2022-12-18T05:56:17;50.90;;;30.50;;
7306;SDS011;3694;48.732;9.248;2022-12-18T05:58:45;54.60;;;31.33;;
7306;SDS011;3694;48.732;9.248;2022-12-18T06:01:12;49.77;;;31.40;;
7306;SDS011;3694;48.732;9.248;2022-12-18T06:03:41;52.57;;;32.80;;
7306;SDS011;3694;48.732;9.248;2022-12-18T06:06:14;51.67;;;32.03;;
7306;SDS011;3694;48.732;9.248;2022-12-18T06:08:41;52.17;;;31.00;;
7306;SDS011;3694;48.732;9.248;2022-12-18T06:11:07;52.17;;;31.63;;
7306;SDS011;3694;48.732;9.248;2022-12-18T06:13:32;48.50;;;30.33;;
7306;SDS011;3694;48.732;9.248;2022-12-18T06:15:58;54.07;;;32.10;;
7306;SDS011;3694;48.732;9.248;2022-12-18T06:18:27;55.40;;;33.00;;
7306;SDS011;3694;48.732;9.248;2022-12-18T06:20:56;50.37;;;31.17;;
7306;SDS011;3694;48.732;9.248;2022-12-18T06:23:22;50.80;;;30.23;;
7306;SDS011;3694;48.732;9.248;2022-12-18T06:25:48;47.67;;;29.20;;
7306;SDS011;3694;48.732;9.248;2022-12-18T06:28:13;46.00;;;30.10;;
7306;SDS011;3694;48.732;9.248;2022-12-18T06:30:39;51.20;;;32.43;;
7306;SDS011;3694;48.732;9.248;2022-12-18T06:33:05;47.37;;;30.40;;
7306;SDS011;3694;48.732;9.248;2022-12-18T06:35:31;53.70;;;32.43;;
7306;SDS011;3694;48.732;9.248;2022-12-18T06:37:57;57.50;;;33.70;;
7306;SDS011;3694;48.732;9.248;2022-12-18T06:40:22;53.27;;;33.57;;
7306;SDS011;3694;48.732;9.248;2022-12-18T06:42:48;55.60;;;34.93;;
7306;SDS011;3694;48.732;9.248;2022-12-18T06:45:15;53.43;;;32.70;;
7306;SDS011;3694;48.732;9.248;2022-12-18T06:47:40;52.07;;;31.20;;
7306;SDS011;3694;48.732;9.248;2022-12-18T06:50:06;50.23;;;31.90;;
7306;SDS011;3694;48.732;9.248;2022-12-18T06:52:32;50.97;;;31.17;;
7306;SDS011;3694;48.732;9.248;2022-12-18T06:54:58;56.13;;;35.10;;
7306;SDS011;3694;48.732;9.248;2022-12-18T06:57:24;60.60;;;39.40;;
7306;SDS011;3694;48.732;9.248;2022-12-18T06:59:49;70.17;;;43.03;;
7306;SDS011;3694;48.732;9.248;2022-12-18T07:02:15;66.47;;;43.13;;
7306;SDS011;3694;48.732;9.248;2022-12-18T07:04:41;61.17;;;42.10;;
7306;SDS011;3694;48.732;9.248;2022-12-18T07:07:06;53.53;;;33.37;;
7306;SDS011;3694;48.732;9.248;2022-12-18T07:09:32;58.63;;;36.53;;
7306;SDS011;3694;48.732;9.248;2022-12-18T07:11:58;55.60;;;33.40;;
7306;SDS011;3694;48.732;9.248;2022-12-18T07:14:23;65.93;;;37.00;;
7306;SDS011;3694;48.732;9.248;2022-12-18T07:16:49;60.63;;;36.50;;
7306;SDS011;3694;48.732;9.248;2022-12-18T07:19:14;62.20;;;35.40;;
7306;SDS011;3694;48.732;9.248;2022-12-18T07:21:40;54.50;;;33.30;;
7306;SDS011;3694;48.732;9.248;2022-12-18T07:24:05;67.70;;;38.63;;
7306;SDS011;3694;48.732;9.248;2022-12-18T07:26:31;61.40;;;35.13;;
7306;SDS011;3694;48.732;9.248;2022-12-18T07:28:57;61.77;;;36.10;;
7306;SDS011;3694;48.732;9.248;2022-12-18T07:31:22;53.63;;;33.30;;
7306;SDS011;3694;48.732;9.248;2022-12-18T07:33:49;53.27;;;33.73;;
7306;SDS011;3694;48.732;9.248;2022-12-18T07:36:15;56.47;;;34.83;;
7306;SDS011;3694;48.732;9.248;2022-12-18T07:38:41;54.13;;;35.10;;
7306;SDS011;3694;48.732;9.248;2022-12-18T07:41:08;53.80;;;34.73;;
7306;SDS011;3694;48.732;9.248;2022-12-18T07:43:36;54.67;;;35.43;;
7306;SDS011;3694;48.732;9.248;2022-12-18T07:46:02;58.40;;;37.37;;
7306;SDS011;3694;48.732;9.248;2022-12-18T07:48:28;61.73;;;38.50;;
7306;SDS011;3694;48.732;9.248;2022-12-18T07:50:58;61.93;;;41.37;;
7306;SDS011;3694;48.732;9.248;2022-12-18T07:53:24;61.23;;;38.67;;
7306;SDS011;3694;48.732;9.248;2022-12-18T07:55:54;61.53;;;37.93;;
7306;SDS011;3694;48.732;9.248;2022-12-18T07:58:23;58.73;;;36.67;;
7306;SDS011;3694;48.732;9.248;2022-12-18T08:00:49;65.47;;;41.73;;
7306;SDS011;3694;48.732;9.248;2022-12-18T08:03:14;57.33;;;36.30;;
7306;SDS011;3694;48.732;9.248;2022-12-18T08:05:40;62.63;;;38.07;;
7306;SDS011;3694;48.732;9.248;2022-12-18T08:08:06;59.20;;;36.80;;
7306;SDS011;3694;48.732;9.248;2022-12-18T08:10:31;58.37;;;33.93;;
7306;SDS011;3694;48.732;9.248;2022-12-18T08:12:57;56.93;;;34.27;;
7306;SDS011;3694;48.732;9.248;2022-12-18T08:15:22;57.07;;;34.93;;
7306;SDS011;3694;48.732;9.248;2022-12-18T08:17:48;64.93;;;37.30;;
7306;SDS011;3694;48.732;9.248;2022-12-18T08:20:14;63.30;;;36.80;;
7306;SDS011;3694;48.732;9.248;2022-12-18T08:22:40;55.67;;;35.77;;
7306;SDS011;3694;48.732;9.248;2022-12-18T08:25:06;56.50;;;35.97;;
7306;SDS011;3694;48.732;9.248;2022-12-18T08:27:33;57.70;;;36.53;;
7306;SDS011;3694;48.732;9.248;2022-12-18T08:29:58;55.53;;;33.23;;
7306;SDS011;3694;48.732;9.248;2022-12-18T08:32:25;52.57;;;35.47;;
7306;SDS011;3694;48.732;9.248;2022-12-18T08:34:51;54.80;;;34.10;;
7306;SDS011;3694;48.732;9.248;2022-12-18T08:37:17;58.77;;;35.13;;
7306;SDS011;3694;48.732;9.248;2022-12-18T08:39:42;54.03;;;33.97;;
7306;SDS011;3694;48.732;9.248;2022-12-18T08:42:08;59.07;;;36.17;;
7306;SDS011;3694;48.732;9.248;2022-12-18T08:44:52;56.87;;;35.00;;
7306;SDS011;3694;48.732;9.248;2022-12-18T08:47:18;66.23;;;37.87;;
7306;SDS011;3694;48.732;9.248;2022-12-18T08:49:44;60.27;;;37.03;;
7306;SDS011;3694;48.732;9.248;2022-12-18T08:52:10;59.13;;;36.40;;
7306;SDS011;3694;48.732;9.248;2022-12-18T08:54:36;55.80;;;35.13;;
7306;SDS011;3694;48.732;9.248;2022-12-18T08:57:01;57.07;;;36.67;;
7306;SDS011;3694;48.732;9.248;2022-12-18T08:59:27;57.47;;;34.43;;
7306;SDS011;3694;48.732;9.248;2022-12-18T09:01:53;60.87;;;34.53;;
7306;SDS011;3694;48.732;9.248;2022-12-18T09:04:20;55.03;;;33.40;;
7306;SDS011;3694;48.732;9.248;2022-12-18T09:06:45;54.40;;;34.97;;
7306;SDS011;3694;48.732;9.248;2022-12-18T09:09:11;52.40;;;33.70;;
7306;SDS011;3694;48.732;9.248;2022-12-18T09:11:37;53.47;;;33.27;;
7306;SDS011;3694;48.732;9.248;2022-12-18T09:14:03;55.70;;;33.43;;
7306;SDS011;3694;48.732;9.248;2022-12-18T09:16:29;54.77;;;34.47;;
7306;SDS011;3694;48.732;9.248;2022-12-18T09:18:56;56.17;;;35.00;;
7306;SDS011;3694;48.732;9.248;2022-12-18T09:21:27;60.23;;;36.10;;
7306;SDS011;3694;48.732;9.248;2022-12-18T09:23:57;55.83;;;35.57;;
7306;SDS011;3694;48.732;9.248;2022-12-18T09:26:23;59.27;;;36.40;;
7306;SDS011;3694;48.732;9.248;2022-12-18T09:28:50;54.23;;;35.33;;
7306;SDS011;3694;48.732;9.248;2022-12-18T09:31:16;52.53;;;32.83;;
7306;SDS011;3694;48.732;9.248;2022-12-18T09:33:43;54.17;;;33.53;;
7306;SDS011;3694;48.732;9.248;2022-12-18T09:36:10;55.67;;;34.87;;
7306;SDS011;3694;48.732;9.248;2022-12-18T09:38:38;50.40;;;32.67;;
7306;SDS011;3694;48.732;9.248;2022-12-18T09:43:42;54.60;;;31.90;;
7306;SDS011;3694;48.732;9.248;2022-12-18T09:46:16;54.23;;;32.00;;
7306;SDS011;3694;48.732;9.248;2022-12-18T09:48:46;51.03;;;31.73;;
7306;SDS011;3694;48.732;9.248;2022-12-18T09:51:16;54.60;;;33.93;;
7306;SDS011;3694;48.732;9.248;2022-12-18T09:53:50;50.27;;;31.90;;
7306;SDS011;3694;48.732;9.248;2022-12-18T09:56:26;48.77;;;31.77;;
7306;SDS011;3694;48.732;9.248;2022-12-18T09:58:57;60.80;;;34.10;;
7306;SDS011;3694;48.732;9.248;2022-12-18T10:01:24;53.17;;;34.57;;
7306;SDS011;3694;48.732;9.248;2022-12-18T10:03:51;54.77;;;32.63;;
7306;SDS011;3694;48.732;9.248;2022-12-18T10:06:23;59.40;;;34.63;;
7306;SDS011;3694;48.732;9.248;2022-12-18T10:09:03;55.90;;;34.53;;
7306;SDS011;3694;48.732;9.248;2022-12-18T10:11:47;50.70;;;32.27;;
7306;SDS011;3694;48.732;9.248;2022-12-18T10:19:55;53.77;;;32.17;;
7306;SDS011;3694;48.732;9.248;2022-12-18T10:22:28;53.80;;;32.00;;
7306;SDS011;3694;48.732;9.248;2022-12-18T10:25:02;54.63;;;34.57;;
7306;SDS011;3694;48.732;9.248;2022-12-18T10:27:38;56.57;;;34.37;;
7306;SDS011;3694;48.732;9.248;2022-12-18T10:30:11;53.87;;;33.33;;
7306;SDS011;3694;48.732;9.248;2022-12-18T10:32:39;54.27;;;33.80;;
7306;SDS011;3694;48.732;9.248;2022-12-18T10:35:25;53.03;;;33.37;;
7306;SDS011;3694;48.732;9.248;2022-12-18T10:43:16;51.43;;;31.90;;
7306;SDS011;3694;48.732;9.248;2022-12-18T10:51:05;51.07;;;30.87;;
7306;SDS011;3694;48.732;9.248;2022-12-18T10:53:33;46.63;;;27.83;;
7306;SDS011;3694;48.732;9.248;2022-12-18T10:56:02;46.70;;;28.67;;
7306;SDS011;3694;48.732;9.248;2022-12-18T10:58:37;44.30;;;27.00;;
7306;SDS011;3694;48.732;9.248;2022-12-18T11:01:08;48.27;;;29.23;;
7306;SDS011;3694;48.732;9.248;2022-12-18T11:03:40;46.67;;;27.63;;
7306;SDS011;3694;48.732;9.248;2022-12-18T11:06:08;41.53;;;26.63;;
7306;SDS011;3694;48.732;9.248;2022-12-18T11:08:40;47.20;;;26.87;;
7306;SDS011;3694;48.732;9.248;2022-12-18T11:11:15;43.70;;;27.20;;
7306;SDS011;3694;48.732;9.248;2022-12-18T11:14:06;37.63;;;22.90;;
7306;SDS011;3694;48.732;9.248;2022-12-18T11:16:43;45.43;;;27.67;;
7306;SDS011;3694;48.732;9.248;2022-12-18T11:19:19;46.37;;;29.17;;
7306;SDS011;3694;48.732;9.248;2022-12-18T11:22:03;45.87;;;26.03;;
7306;SDS011;3694;48.732;9.248;2022-12-18T11:25:01;44.17;;;26.80;;
7306;SDS011;3694;48.732;9.248;2022-12-18T11:27:30;43.97;;;26.50;;
7306;SDS011;3694;48.732;9.248;2022-12-18T11:30:10;44.40;;;26.07;;
7306;SDS011;3694;48.732;9.248;2022-12-18T11:32:47;50.63;;;27.40;;
7306;SDS011;3694;48.732;9.248;2022-12-18T11:35:19;43.20;;;26.37;;
7306;SDS011;3694;48.732;9.248;2022-12-18T11:38:02;45.50;;;27.43;;
7306;SDS011;3694;48.732;9.248;2022-12-18T11:40:44;45.80;;;27.17;;
7306;SDS011;3694;48.732;9.248;2022-12-18T11:43:36;45.97;;;26.63;;
7306;SDS011;3694;48.732;9.248;2022-12-18T11:46:34;45.57;;;27.23;;
7306;SDS011;3694;48.732;9.248;2022-12-18T11:49:04;46.67;;;27.93;;
7306;SDS011;3694;48.732;9.248;2022-12-18T11:51:47;45.43;;;27.40;;
7306;SDS011;3694;48.732;9.248;2022-12-18T11:54:25;52.43;;;28.47;;
7306;SDS011;3694;48.732;9.248;2022-12-18T11:56:53;49.77;;;29.77;;
7306;SDS011;3694;48.732;9.248;2022-12-18T11:59:43;52.87;;;29.77;;
7306;SDS011;3694;48.732;9.248;2022-12-18T12:02:36;46.40;;;26.80;;
7306;SDS011;3694;48.732;9.248;2022-12-18T12:13:11;49.37;;;29.37;;
7306;SDS011;3694;48.732;9.248;2022-12-18T12:23:46;50.93;;;29.67;;
7306;SDS011;3694;48.732;9.248;2022-12-18T12:26:45;51.50;;;29.73;;
7306;SDS011;3694;48.732;9.248;2022-12-18T12:29:21;48.40;;;29.40;;
7306;SDS011;3694;48.732;9.248;2022-12-18T12:33:02;49.57;;;30.83;;
7306;SDS011;3694;48.732;9.248;2022-12-18T12:38:22;48.60;;;28.83;;
7306;SDS011;3694;48.732;9.248;2022-12-18T12:41:02;50.40;;;28.87;;
7306;SDS011;3694;48.732;9.248;2022-12-18T12:46:12;45.30;;;28.53;;
7306;SDS011;3694;48.732;9.248;2022-12-18T12:48:52;40.17;;;25.70;;
7306;SDS011;3694;48.732;9.248;2022-12-18T12:51:42;47.37;;;28.73;;
7306;SDS011;3694;48.732;9.248;2022-12-18T12:54:16;47.27;;;28.00;;
7306;SDS011;3694;48.732;9.248;2022-12-18T12:56:58;46.43;;;28.03;;
7306;SDS011;3694;48.732;9.248;2022-12-18T13:05:30;46.13;;;27.80;;
7306;SDS011;3694;48.732;9.248;2022-12-18T13:08:12;47.70;;;28.70;;
7306;SDS011;3694;48.732;9.248;2022-12-18T13:10:52;45.00;;;28.17;;
7306;SDS011;3694;48.732;9.248;2022-12-18T13:13:51;46.57;;;26.23;;
7306;SDS011;3694;48.732;9.248;2022-12-18T13:16:21;45.03;;;27.40;;
7306;SDS011;3694;48.732;9.248;2022-12-18T13:18:49;43.97;;;28.10;;
7306;SDS011;3694;48.732;9.248;2022-12-18T13:21:27;43.10;;;26.83;;
7306;SDS011;3694;48.732;9.248;2022-12-18T13:24:14;45.53;;;28.27;;
7306;SDS011;3694;48.732;9.248;2022-12-18T13:26:46;43.97;;;27.17;;
7306;SDS011;3694;48.732;9.248;2022-12-18T13:29:11;45.73;;;27.93;;
7306;SDS011;3694;48.732;9.248;2022-12-18T13:32:18;42.33;;;26.97;;
7306;SDS011;3694;48.732;9.248;2022-12-18T13:34:46;51.90;;;29.20;;
7306;SDS011;3694;48.732;9.248;2022-12-18T13:43:15;41.30;;;25.93;;
7306;SDS011;3694;48.732;9.248;2022-12-18T13:45:49;45.13;;;26.73;;
7306;SDS011;3694;48.732;9.248;2022-12-18T13:48:36;47.53;;;27.93;;
7306;SDS011;3694;48.732;9.248;2022-12-18T13:51:04;43.10;;;26.60;;
7306;SDS011;3694;48.732;9.248;2022-12-18T13:53:39;42.53;;;26.53;;
7306;SDS011;3694;48.732;9.248;2022-12-18T13:56:09;46.43;;;28.13;;
7306;SDS011;3694;48.732;9.248;2022-12-18T13:58:41;45.83;;;29.33;;
7306;SDS011;3694;48.732;9.248;2022-12-18T14:01:20;44.80;;;28.50;;
7306;SDS011;3694;48.732;9.248;2022-12-18T14:03:48;43.53;;;28.00;;
7306;SDS011;3694;48.732;9.248;2022-12-18T14:06:13;44.40;;;28.40;;
7306;SDS011;3694;48.732;9.248;2022-12-18T14:08:41;52.13;;;31.83;;
7306;SDS011;3694;48.732;9.248;2022-12-18T14:13:44;53.90;;;32.80;;
7306;SDS011;3694;48.732;9.248;2022-12-18T14:16:12;49.43;;;31.23;;
7306;SDS011;3694;48.732;9.248;2022-12-18T14:18:53;44.00;;;27.80;;
7306;SDS011;3694;48.732;9.248;2022-12-18T14:21:27;43.53;;;26.77;;
7306;SDS011;3694;48.732;9.248;2022-12-18T14:26:44;49.33;;;29.23;;
7306;SDS011;3694;48.732;9.248;2022-12-18T14:29:21;49.50;;;28.60;;
7306;SDS011;3694;48.732;9.248;2022-12-18T14:32:11;49.03;;;28.03;;
7306;SDS011;3694;48.732;9.248;2022-12-18T14:34:41;51.03;;;28.70;;
7306;SDS011;3694;48.732;9.248;2022-12-18T14:37:11;46.60;;;27.53;;
7306;SDS011;3694;48.732;9.248;2022-12-18T14:39:38;49.43;;;29.07;;
7306;SDS011;3694;48.732;9.248;2022-12-18T14:42:04;44.57;;;28.23;;
7306;SDS011;3694;48.732;9.248;2022-12-18T14:44:30;49.93;;;29.10;;
7306;SDS011;3694;48.732;9.248;2022-12-18T14:46:56;47.77;;;28.87;;
7306;SDS011;3694;48.732;9.248;2022-12-18T14:54:24;51.90;;;31.27;;
7306;SDS011;3694;48.732;9.248;2022-12-18T14:56:51;54.00;;;30.80;;
7306;SDS011;3694;48.732;9.248;2022-12-18T14:59:27;53.50;;;30.67;;
7306;SDS011;3694;48.732;9.248;2022-12-18T15:01:58;55.23;;;32.37;;
7306;SDS011;3694;48.732;9.248;2022-12-18T15:04:33;55.00;;;33.20;;
7306;SDS011;3694;48.732;9.248;2022-12-18T15:07:05;56.47;;;33.63;;
7306;SDS011;3694;48.732;9.248;2022-12-18T15:09:33;56.53;;;33.60;;
7306;SDS011;3694;48.732;9.248;2022-12-18T15:12:00;55.97;;;31.70;;
7306;SDS011;3694;48.732;9.248;2022-12-18T15:17:06;55.33;;;34.77;;
7306;SDS011;3694;48.732;9.248;2022-12-18T15:19:41;56.80;;;33.40;;
7306;SDS011;3694;48.732;9.248;2022-12-18T15:22:17;56.93;;;33.40;;
7306;SDS011;3694;48.732;9.248;2022-12-18T15:24:43;58.43;;;34.33;;
7306;SDS011;3694;48.732;9.248;2022-12-18T15:27:26;57.67;;;35.70;;
7306;SDS011;3694;48.732;9.248;2022-12-18T15:30:15;60.00;;;34.67;;
7306;SDS011;3694;48.732;9.248;2022-12-18T15:32:43;62.00;;;35.67;;
7306;SDS011;3694;48.732;9.248;2022-12-18T15:35:13;62.20;;;35.70;;
7306;SDS011;3694;48.732;9.248;2022-12-18T15:37:40;58.93;;;34.57;;
7306;SDS011;3694;48.732;9.248;2022-12-18T15:40:06;64.60;;;38.47;;
7306;SDS011;3694;48.732;9.248;2022-12-18T15:42:33;64.43;;;38.47;;
7306;SDS011;3694;48.732;9.248;2022-12-18T15:45:17;67.97;;;41.60;;
7306;SDS011;3694;48.732;9.248;2022-12-18T15:47:43;71.43;;;44.13;;
7306;SDS011;3694;48.732;9.248;2022-12-18T15:50:08;63.37;;;38.97;;
7306;SDS011;3694;48.732;9.248;2022-12-18T15:52:38;61.10;;;37.83;;
7306;SDS011;3694;48.732;9.248;2022-12-18T15:55:13;64.27;;;38.83;;
7306;SDS011;3694;48.732;9.248;2022-12-18T15:57:59;66.57;;;39.03;;
7306;SDS011;3694;48.732;9.248;2022-12-18T16:00:25;68.97;;;39.00;;
7306;SDS011;3694;48.732;9.248;2022-12-18T16:02:50;65.87;;;40.10;;
7306;SDS011;3694;48.732;9.248;2022-12-18T16:05:17;67.93;;;40.57;;
7306;SDS011;3694;48.732;9.248;2022-12-18T16:07:45;70.03;;;43.33;;
7306;SDS011;3694;48.732;9.248;2022-12-18T16:10:10;71.43;;;41.97;;
7306;SDS011;3694;48.732;9.248;2022-12-18T16:12:37;73.37;;;44.10;;
7306;SDS011;3694;48.732;9.248;2022-12-18T16:15:04;77.07;;;45.80;;
7306;SDS011;3694;48.732;9.248;2022-12-18T16:17:30;69.13;;;40.40;;
7306;SDS011;3694;48.732;9.248;2022-12-18T16:19:56;67.57;;;39.73;;
7306;SDS011;3694;48.732;9.248;2022-12-18T16:22:22;79.53;;;42.60;;
7306;SDS011;3694;48.732;9.248;2022-12-18T16:24:51;78.00;;;42.63;;
7306;SDS011;3694;48.732;9.248;2022-12-18T16:27:17;74.67;;;41.70;;